Time;durP1;ratioP1;P1;durP2;ratioP2;P2;SDS_P1;SDS_P2;PMS_P1;PMS_P2;Temp;Humidity;BMP_temperature;BMP_pressure;BME280_temperature;BME280_humidity;BME280_pressure;Samples;Min_cycle;Max_cycle;Signal;HPM_P1;HPM_P2
2022/07/19 00:02:13;;;;;;;3.95;3.75;;;;;;;-142.91;100.00;56616.03;5007628;28;20224;-61
2022/07/19 00:04:40;;;;;;;11.55;3.70;;;;;;;-142.91;100.00;56616.03;5008588;28;20652;-61
2022/07/19 00:07:07;;;;;;;6.40;3.72;;;;;;;-142.91;100.00;56616.03;5008199;28;20211;-61
2022/07/19 00:09:34;;;;;;;6.97;3.63;;;;;;;-142.91;100.00;56616.03;5009098;28;20704;-61
2022/07/19 00:12:01;;;;;;;3.28;2.55;;;;;;;-142.91;100.00;56616.03;5009486;28;20994;-61
2022/07/19 00:14:29;;;;;;;5.03;3.53;;;;;;;-142.91;100.00;56616.03;5007970;28;20885;-61
2022/07/19 00:16:55;;;;;;;3.45;3.13;;;;;;;-142.91;100.00;56616.03;5007947;28;20203;-62
2022/07/19 00:19:22;;;;;;;9.20;3.55;;;;;;;-142.91;100.00;56616.03;5009553;28;20206;-61
2022/07/19 00:21:49;;;;;;;6.03;2.95;;;;;;;-142.91;100.00;56616.03;5010010;28;20237;-61
2022/07/19 00:24:16;;;;;;;3.75;2.65;;;;;;;-142.91;100.00;56616.03;5009143;28;20656;-61
2022/07/19 00:26:43;;;;;;;3.58;2.20;;;;;;;-142.91;100.00;56616.03;5008756;28;20233;-59
2022/07/19 00:29:09;;;;;;;3.40;2.60;;;;;;;-142.91;100.00;56616.03;5009076;28;20963;-60
2022/07/19 00:31:38;;;;;;;2.58;2.42;;;;;;;-142.91;100.00;56616.03;5008733;28;20293;-61
2022/07/19 00:34:04;;;;;;;2.53;2.40;;;;;;;-142.91;100.00;56616.03;5008079;28;20214;-60
2022/07/19 00:36:31;;;;;;;3.08;2.78;;;;;;;-142.91;100.00;56616.03;5007693;28;20263;-61
2022/07/19 00:38:58;;;;;;;3.13;2.80;;;;;;;-142.91;100.00;56616.03;5007375;28;20207;-60
2022/07/19 00:41:25;;;;;;;4.18;2.58;;;;;;;-142.91;100.00;56616.03;5006838;28;20216;-62
2022/07/19 00:43:52;;;;;;;3.08;2.88;;;;;;;-142.91;100.00;56616.03;5007856;28;20680;-62
2022/07/19 00:46:21;;;;;;;2.90;2.70;;;;;;;-142.91;100.00;56616.03;5008355;28;20207;-61
2022/07/19 00:48:49;;;;;;;3.60;3.30;;;;;;;-142.91;100.00;56616.03;5007242;28;20203;-63
2022/07/19 00:51:18;;;;;;;4.57;2.88;;;;;;;-142.91;100.00;56616.03;5007856;28;20233;-59
2022/07/19 00:53:45;;;;;;;4.82;2.90;;;;;;;-142.91;100.00;56616.03;5009383;28;20207;-60
2022/07/19 00:56:13;;;;;;;6.70;2.47;;;;;;;-142.91;100.00;56616.03;5006781;28;20599;-60
2022/07/19 00:58:41;;;;;;;6.72;2.80;;;;;;;-142.91;100.00;56616.03;5007742;28;20594;-60
2022/07/19 01:01:10;;;;;;;2.95;2.65;;;;;;;-142.91;100.00;56616.03;5007616;28;20681;-60
2022/07/19 01:03:39;;;;;;;2.83;2.70;;;;;;;-142.91;100.00;56616.03;5008380;28;20316;-61
2022/07/19 01:06:09;;;;;;;3.80;3.00;;;;;;;-142.91;100.00;56616.03;5007657;28;20226;-60
2022/07/19 01:08:38;;;;;;;5.15;2.35;;;;;;;-142.91;100.00;56616.03;5008953;28;20707;-61
2022/07/19 01:11:06;;;;;;;3.83;3.35;;;;;;;-142.91;100.00;56616.03;5007593;28;20296;-60
2022/07/19 01:13:33;;;;;;;2.90;2.70;;;;;;;-142.91;100.00;56616.03;5008488;28;20221;-60
2022/07/19 01:15:59;;;;;;;6.82;2.60;;;;;;;-142.91;100.00;56616.03;5007002;28;20207;-61
2022/07/19 01:18:26;;;;;;;3.00;2.80;;;;;;;-142.91;100.00;56616.03;5008152;28;20332;-61
2022/07/19 01:20:53;;;;;;;2.22;2.10;;;;;;;-142.91;100.00;56616.03;5008265;28;20277;-61
2022/07/19 01:23:22;;;;;;;4.40;2.65;;;;;;;-142.91;100.00;56616.03;5008090;28;20241;-60
2022/07/19 01:25:48;;;;;;;5.45;2.70;;;;;;;-142.91;100.00;56616.03;5008467;28;20214;-60
2022/07/19 01:28:15;;;;;;;2.92;2.40;;;;;;;-142.91;100.00;56616.03;5006694;28;20218;-61
2022/07/19 01:30:42;;;;;;;4.70;2.40;;;;;;;-142.91;100.00;56616.03;5007265;28;21496;-65
2022/07/19 01:33:09;;;;;;;2.67;2.58;;;;;;;-142.91;100.00;56616.03;5008599;28;20265;-61
2022/07/19 01:35:36;;;;;;;4.03;2.50;;;;;;;-142.91;100.00;56616.03;5008241;28;20245;-61
2022/07/19 01:38:03;;;;;;;3.00;2.70;;;;;;;-142.91;100.00;56616.03;5007638;28;20198;-63
2022/07/19 01:40:32;;;;;;;2.85;2.60;;;;;;;-142.91;100.00;56616.03;5005709;28;20246;-62
2022/07/19 01:43:00;;;;;;;5.57;2.50;;;;;;;-142.91;100.00;56616.03;5007652;28;20238;-61
2022/07/19 01:45:27;;;;;;;2.97;2.63;;;;;;;-142.91;100.00;56616.03;5006500;28;20206;-62
2022/07/19 01:47:54;;;;;;;3.40;2.30;;;;;;;-142.91;100.00;56616.03;5007292;28;20202;-59
2022/07/19 01:50:20;;;;;;;3.08;2.00;;;;;;;-142.91;100.00;56616.03;5005606;28;20718;-60
2022/07/19 01:52:47;;;;;;;2.78;2.50;;;;;;;-142.91;100.00;56616.03;5006926;28;20240;-59
2022/07/19 01:55:14;;;;;;;2.80;2.60;;;;;;;-142.91;100.00;56616.03;5006228;28;20688;-60
2022/07/19 01:57:42;;;;;;;10.38;2.63;;;;;;;-142.91;100.00;56616.03;5007010;28;21061;-61
2022/07/19 02:00:10;;;;;;;2.80;2.70;;;;;;;-142.91;100.00;56616.03;5005268;28;20234;-60
2022/07/19 02:02:37;;;;;;;10.73;3.05;;;;;;;-142.91;100.00;56616.03;5007676;28;20241;-62
2022/07/19 02:05:04;;;;;;;8.77;2.58;;;;;;;-142.91;100.00;56616.03;5007044;28;21123;-61
2022/07/19 02:07:31;;;;;;;2.63;2.42;;;;;;;-142.91;100.00;56616.03;5005979;28;20222;-61
2022/07/19 02:09:58;;;;;;;2.67;2.47;;;;;;;-142.91;100.00;56616.03;5005534;28;20207;-61
2022/07/19 02:12:25;;;;;;;2.08;1.98;;;;;;;-142.91;100.00;56616.03;5008756;28;20598;-61
2022/07/19 02:14:53;;;;;;;4.97;2.50;;;;;;;-142.91;100.00;56616.03;5007528;28;20276;-61
2022/07/19 02:17:20;;;;;;;3.45;2.65;;;;;;;-142.91;100.00;56616.03;5006936;28;20268;-63
2022/07/19 02:19:47;;;;;;;6.63;3.05;;;;;;;-142.91;100.00;56616.03;5007410;28;20252;-63
2022/07/19 02:22:14;;;;;;;2.47;2.28;;;;;;;-142.91;100.00;56616.03;5007284;28;20231;-61
2022/07/19 02:24:42;;;;;;;4.60;2.70;;;;;;;-142.91;100.00;56616.03;5007302;28;20206;-61
2022/07/19 02:27:10;;;;;;;3.20;2.92;;;;;;;-142.91;100.00;56616.03;5006414;28;20210;-62
2022/07/19 02:29:37;;;;;;;3.25;2.33;;;;;;;-142.91;100.00;56616.03;5006079;28;20783;-63
2022/07/19 02:32:06;;;;;;;3.92;2.58;;;;;;;-142.91;100.00;56616.03;5007130;28;20364;-61
2022/07/19 02:34:34;;;;;;;2.90;2.45;;;;;;;-142.91;100.00;56616.03;5007159;28;20217;-62
2022/07/19 02:37:01;;;;;;;3.85;2.53;;;;;;;-142.91;100.00;56616.03;5004463;28;20213;-61
2022/07/19 02:39:28;;;;;;;4.70;3.60;;;;;;;-142.91;100.00;56616.03;5006809;28;20707;-61
2022/07/19 02:41:55;;;;;;;2.95;2.75;;;;;;;-142.91;100.00;56616.03;5005480;28;20280;-67
2022/07/19 02:44:21;;;;;;;3.13;2.85;;;;;;;-142.91;100.00;56616.03;5007097;28;20215;-61
2022/07/19 02:46:48;;;;;;;4.50;2.75;;;;;;;-142.91;100.00;56616.03;5005918;28;20203;-61
2022/07/19 02:49:17;;;;;;;3.15;2.85;;;;;;;-142.91;100.00;56616.03;5007914;28;20203;-63
2022/07/19 02:51:43;;;;;;;3.72;2.67;;;;;;;-142.91;100.00;56616.03;5005388;28;20207;-61
2022/07/19 02:54:10;;;;;;;3.03;2.78;;;;;;;-142.91;100.00;56616.03;5007497;28;20250;-61
2022/07/19 02:56:37;;;;;;;7.07;3.47;;;;;;;-142.91;100.00;56616.03;5004706;28;20203;-61
2022/07/19 02:59:04;;;;;;;3.55;2.72;;;;;;;-142.91;100.00;56616.03;5006652;28;20209;-61
2022/07/19 03:01:31;;;;;;;2.95;2.65;;;;;;;-142.91;100.00;56616.03;5004814;28;20202;-61
2022/07/19 03:03:58;;;;;;;2.92;2.67;;;;;;;-142.91;100.00;56616.03;5006537;28;20215;-62
2022/07/19 03:06:26;;;;;;;5.38;2.97;;;;;;;-142.91;100.00;56616.03;5004476;28;20222;-61
2022/07/19 03:08:53;;;;;;;4.43;3.30;;;;;;;-142.91;100.00;56616.03;5005229;28;20217;-61
2022/07/19 03:11:20;;;;;;;3.40;3.20;;;;;;;-142.91;100.00;56616.03;5003848;28;20207;-61
2022/07/19 03:13:47;;;;;;;4.65;3.70;;;;;;;-142.91;100.00;56616.03;5004476;28;20195;-62
2022/07/19 03:16:13;;;;;;;3.78;3.38;;;;;;;-142.91;100.00;56616.03;5005036;28;20221;-61
2022/07/19 03:18:40;;;;;;;6.40;4.35;;;;;;;-142.91;100.00;56616.03;5007751;28;20294;-61
2022/07/19 03:21:07;;;;;;;4.10;3.90;;;;;;;-142.91;100.00;56616.03;5006002;28;20199;-61
2022/07/19 03:23:38;;;;;;;3.85;3.45;;;;;;;-142.91;100.00;56616.03;5006264;28;20315;-61
2022/07/19 03:26:06;;;;;;;10.00;3.88;;;;;;;-142.91;100.00;56616.03;5005319;28;20726;-61
2022/07/19 03:28:32;;;;;;;4.95;4.55;;;;;;;-142.91;100.00;56616.03;5005683;28;20223;-61
2022/07/19 03:30:59;;;;;;;4.93;4.40;;;;;;;-142.91;100.00;56616.03;5003695;28;20238;-61
2022/07/19 03:33:26;;;;;;;9.00;4.15;;;;;;;-142.91;100.00;56616.03;5003706;28;20206;-60
2022/07/19 03:35:53;;;;;;;4.05;3.75;;;;;;;-142.91;100.00;56616.03;5004911;28;20199;-62
2022/07/19 03:38:20;;;;;;;4.18;3.90;;;;;;;-142.91;100.00;56616.03;5007537;28;20273;-61
2022/07/19 03:40:48;;;;;;;4.25;3.92;;;;;;;-142.91;100.00;56616.03;5004437;28;20810;-61
2022/07/19 03:43:16;;;;;;;4.78;3.85;;;;;;;-142.91;100.00;56616.03;5006840;28;20223;-61
2022/07/19 03:45:43;;;;;;;4.18;3.60;;;;;;;-142.91;100.00;56616.03;5007258;28;20636;-61
2022/07/19 03:48:10;;;;;;;4.45;3.50;;;;;;;-142.91;100.00;56616.03;5006854;28;20652;-61
2022/07/19 03:50:38;;;;;;;6.05;3.45;;;;;;;-142.91;100.00;56616.03;5002589;28;20214;-60
2022/07/19 03:53:04;;;;;;;4.97;3.88;;;;;;;-142.91;100.00;56616.03;5005361;28;20220;-61
2022/07/19 03:55:31;;;;;;;3.33;3.03;;;;;;;-142.91;100.00;56616.03;5006823;28;20210;-61
2022/07/19 03:57:59;;;;;;;4.60;2.85;;;;;;;-142.91;100.00;56616.03;5007120;28;20203;-61
2022/07/19 04:00:27;;;;;;;6.55;2.88;;;;;;;-142.91;100.00;56616.03;5006102;28;20273;-62
2022/07/19 04:02:53;;;;;;;3.22;2.85;;;;;;;-142.91;100.00;56616.03;5004610;28;20611;-63
2022/07/19 04:05:20;;;;;;;5.50;3.10;;;;;;;-142.91;100.00;56616.03;5005931;28;20716;-61
2022/07/19 04:07:47;;;;;;;2.83;2.63;;;;;;;-142.91;100.00;56616.03;5007121;28;20203;-62
2022/07/19 04:10:14;;;;;;;3.45;3.15;;;;;;;-142.91;100.00;56616.03;5005019;28;20218;-62
2022/07/19 04:12:41;;;;;;;3.67;3.17;;;;;;;-142.91;100.00;56616.03;5006173;28;20199;-61
2022/07/19 04:15:10;;;;;;;6.47;3.45;;;;;;;-142.91;100.00;56616.03;5005775;28;20701;-62
2022/07/19 04:17:37;;;;;;;5.80;3.22;;;;;;;-142.91;100.00;56616.03;5004801;28;20650;-61
2022/07/19 04:20:04;;;;;;;8.20;3.83;;;;;;;-142.91;100.00;56616.03;5005127;28;20207;-62
2022/07/19 04:22:31;;;;;;;6.57;3.85;;;;;;;-142.91;100.00;56616.03;5004831;28;20209;-63
2022/07/19 04:24:58;;;;;;;4.75;3.85;;;;;;;-142.91;100.00;56616.03;5009181;28;20203;-62
2022/07/19 04:27:25;;;;;;;7.15;3.90;;;;;;;-142.91;100.00;56616.03;5011892;28;20211;-63
2022/07/19 04:29:51;;;;;;;5.43;3.75;;;;;;;-142.91;100.00;56616.03;5008325;28;20699;-60
2022/07/19 04:32:19;;;;;;;9.23;3.95;;;;;;;-142.91;100.00;56616.03;5008555;28;20280;-61
2022/07/19 04:34:46;;;;;;;7.43;4.03;;;;;;;-142.91;100.00;56616.03;5009484;28;20736;-61
2022/07/19 04:37:13;;;;;;;3.88;3.60;;;;;;;-142.91;100.00;56616.03;5009608;28;20203;-61
2022/07/19 04:39:40;;;;;;;5.07;3.40;;;;;;;-142.91;100.00;56616.03;5008477;28;20296;-60
2022/07/19 04:42:07;;;;;;;5.07;3.28;;;;;;;-142.91;100.00;56616.03;5009501;28;20207;-61
2022/07/19 04:44:34;;;;;;;7.30;3.38;;;;;;;-142.91;100.00;56616.03;5009154;28;20296;-61
2022/07/19 04:47:00;;;;;;;3.05;2.80;;;;;;;-142.91;100.00;56616.03;5009893;28;20676;-62
2022/07/19 04:49:29;;;;;;;3.90;2.90;;;;;;;-142.91;100.00;56616.03;5009267;28;21578;-60
2022/07/19 04:51:56;;;;;;;4.07;2.63;;;;;;;-142.91;100.00;56616.03;5007880;28;20222;-61
2022/07/19 04:54:22;;;;;;;8.13;3.25;;;;;;;-142.91;100.00;56616.03;5007686;28;20266;-60
2022/07/19 04:56:49;;;;;;;5.43;3.40;;;;;;;-142.91;100.00;56616.03;5004936;28;21616;-61
2022/07/19 04:59:16;;;;;;;5.97;3.42;;;;;;;-142.91;100.00;56616.03;5008790;28;20296;-61
2022/07/19 05:01:43;;;;;;;5.72;4.05;;;;;;;-142.91;100.00;56616.03;5006153;28;20838;-61
2022/07/19 05:04:09;;;;;;;5.70;3.30;;;;;;;-142.91;100.00;56616.03;5008583;28;22069;-60
2022/07/19 05:06:38;;;;;;;3.90;3.60;;;;;;;-142.91;100.00;56616.03;5043334;22;20246;-60
2022/07/19 05:09:04;;;;;;;4.05;3.63;;;;;;;-142.91;100.00;56616.03;5030151;28;20732;-60
2022/07/19 05:11:31;;;;;;;4.55;3.20;;;;;;;-142.91;100.00;56616.03;5029515;28;20209;-61
2022/07/19 05:13:58;;;;;;;16.35;3.70;;;;;;;-142.91;100.00;56616.03;5028075;28;20206;-60
2022/07/19 05:16:25;;;;;;;5.63;3.05;;;;;;;-142.91;100.00;56616.03;5030054;28;20206;-61
2022/07/19 05:18:51;;;;;;;2.95;2.85;;;;;;;-142.91;100.00;56616.03;5028901;28;20664;-61
2022/07/19 05:21:18;;;;;;;4.18;2.83;;;;;;;-142.91;100.00;56616.03;5029645;28;20217;-61
2022/07/19 05:23:47;;;;;;;3.65;2.40;;;;;;;-142.91;100.00;56616.03;5028966;28;20254;-60
2022/07/19 05:26:13;;;;;;;2.70;2.50;;;;;;;-142.91;100.00;56616.03;5029483;28;20300;-61
2022/07/19 05:28:40;;;;;;;11.30;2.80;;;;;;;-142.91;100.00;56616.03;5028983;28;20198;-61
2022/07/19 05:31:07;;;;;;;7.72;2.92;;;;;;;-142.91;100.00;56616.03;5028248;28;20198;-62
2022/07/19 05:33:34;;;;;;;4.18;2.40;;;;;;;-142.91;100.00;56616.03;5028912;28;20796;-63
2022/07/19 05:36:01;;;;;;;2.80;2.60;;;;;;;-142.91;100.00;56616.03;5028593;28;20259;-63
2022/07/19 05:38:29;;;;;;;4.80;2.67;;;;;;;-142.91;100.00;56616.03;5029462;28;20221;-61
2022/07/19 05:40:57;;;;;;;4.93;2.85;;;;;;;-142.91;100.00;56616.03;5027465;28;20217;-62
2022/07/19 05:43:23;;;;;;;4.28;2.45;;;;;;;-142.91;100.00;56616.03;5028270;28;20344;-63
2022/07/19 05:45:50;;;;;;;4.10;2.25;;;;;;;-142.91;100.00;56616.03;5030338;28;20206;-63
2022/07/19 05:48:17;;;;;;;3.53;3.22;;;;;;;-142.91;100.00;56616.03;5028595;28;20210;-62
2022/07/19 05:50:44;;;;;;;4.13;2.80;;;;;;;-142.91;100.00;56616.03;5027134;28;20211;-63
2022/07/19 05:53:10;;;;;;;2.42;2.05;;;;;;;-142.91;100.00;56616.03;5028610;28;20218;-62
2022/07/19 05:55:38;;;;;;;2.50;2.35;;;;;;;-142.91;100.00;56616.03;5028572;28;20206;-62
2022/07/19 05:58:06;;;;;;;7.80;2.47;;;;;;;-142.91;100.00;56616.03;5029088;28;20214;-61
2022/07/19 06:00:33;;;;;;;7.15;2.65;;;;;;;-142.91;100.00;56616.03;5029159;28;20217;-62
2022/07/19 06:03:00;;;;;;;3.72;2.70;;;;;;;-142.91;100.00;56616.03;5027749;28;20228;-61
2022/07/19 06:05:27;;;;;;;6.43;3.33;;;;;;;-142.91;100.00;56616.03;5028855;28;20227;-61
2022/07/19 06:07:54;;;;;;;4.25;2.30;;;;;;;-142.91;100.00;56616.03;5029332;28;20198;-61
2022/07/19 06:10:20;;;;;;;9.50;1.95;;;;;;;-142.91;100.00;56616.03;5028653;28;20215;-61
2022/07/19 06:12:47;;;;;;;5.47;3.13;;;;;;;-142.91;100.00;56616.03;5027704;28;20210;-62
2022/07/19 06:15:15;;;;;;;7.13;3.00;;;;;;;-142.91;100.00;56616.03;5028392;28;20259;-61
2022/07/19 06:17:42;;;;;;;3.35;3.15;;;;;;;-142.91;100.00;56616.03;5029164;28;20206;-60
2022/07/19 06:20:10;;;;;;;2.45;2.25;;;;;;;-142.91;100.00;56616.03;5027494;28;20274;-61
2022/07/19 06:22:37;;;;;;;4.05;2.42;;;;;;;-142.91;100.00;56616.03;5028869;28;20293;-61
2022/07/19 06:25:06;;;;;;;3.35;2.55;;;;;;;-142.91;100.00;56616.03;5027611;28;20221;-61
2022/07/19 06:27:33;;;;;;;3.30;2.42;;;;;;;-142.91;100.00;56616.03;5028353;28;20210;-62
2022/07/19 06:30:00;;;;;;;4.97;2.33;;;;;;;-142.91;100.00;56616.03;5027515;28;20289;-60
2022/07/19 06:32:29;;;;;;;3.38;2.08;;;;;;;-142.91;100.00;56616.03;5028947;28;20263;-60
2022/07/19 06:34:55;;;;;;;3.03;2.15;;;;;;;-142.91;100.00;56616.03;5027400;28;20226;-62
2022/07/19 06:37:22;;;;;;;5.63;2.40;;;;;;;-142.91;100.00;56616.03;5028153;28;20210;-62
2022/07/19 06:39:49;;;;;;;7.93;5.45;;;;;;;-142.91;100.00;56616.03;5027287;28;20656;-62
2022/07/19 06:42:16;;;;;;;7.70;3.45;;;;;;;-142.91;100.00;56616.03;5027095;28;20688;-61
2022/07/19 06:44:42;;;;;;;8.77;3.40;;;;;;;-142.91;100.00;56616.03;5026908;28;20860;-62
2022/07/19 06:47:09;;;;;;;5.32;2.70;;;;;;;-142.91;100.00;56616.03;5026562;28;20295;-63
2022/07/19 06:49:37;;;;;;;3.60;3.05;;;;;;;-142.91;100.00;56616.03;5027410;28;20198;-62
2022/07/19 06:52:04;;;;;;;2.75;2.45;;;;;;;-142.91;100.00;56616.03;5029009;28;20665;-61
2022/07/19 06:54:31;;;;;;;2.15;1.95;;;;;;;-142.91;100.00;56616.03;5027334;28;20206;-61
2022/07/19 06:56:57;;;;;;;2.85;2.58;;;;;;;-142.91;100.00;56616.03;5027197;28;20672;-61
2022/07/19 06:59:24;;;;;;;4.30;3.55;;;;;;;-142.91;100.00;56616.03;5028180;28;20695;-61
2022/07/19 07:01:52;;;;;;;5.13;2.90;;;;;;;-142.91;100.00;56616.03;5026807;28;20211;-61
2022/07/19 07:04:19;;;;;;;7.38;2.42;;;;;;;-142.91;100.00;56616.03;5026742;28;20237;-61
2022/07/19 07:06:47;;;;;;;4.35;2.50;;;;;;;-142.91;100.00;56616.03;5027629;28;21073;-63
2022/07/19 07:09:14;;;;;;;7.57;2.40;;;;;;;-142.91;100.00;56616.03;5027879;28;20206;-61
2022/07/19 07:11:41;;;;;;;3.45;2.10;;;;;;;-142.91;100.00;56616.03;5027444;28;20217;-62
2022/07/19 07:14:08;;;;;;;2.80;2.53;;;;;;;-142.91;100.00;56616.03;5027239;28;20202;-61
2022/07/19 07:16:34;;;;;;;2.22;2.00;;;;;;;-142.91;100.00;56616.03;5027455;28;20279;-62
2022/07/19 07:19:01;;;;;;;33.55;23.15;;;;;;;-142.91;100.00;56616.03;5028272;28;22753;-61
2022/07/19 07:21:29;;;;;;;5.82;5.25;;;;;;;-142.91;100.00;56616.03;5026841;28;20676;-61
2022/07/19 07:23:58;;;;;;;7.03;4.47;;;;;;;-142.91;100.00;56616.03;5027004;28;20257;-61
2022/07/19 07:26:24;;;;;;;3.40;2.33;;;;;;;-142.91;100.00;56616.03;5028781;28;20225;-61
2022/07/19 07:28:51;;;;;;;4.65;2.25;;;;;;;-142.91;100.00;56616.03;5028908;28;20214;-62
2022/07/19 07:31:18;;;;;;;6.03;2.40;;;;;;;-142.91;100.00;56616.03;5026191;28;20213;-61
2022/07/19 07:33:45;;;;;;;2.55;2.05;;;;;;;-142.91;100.00;56616.03;5027423;28;20201;-62
2022/07/19 07:36:12;;;;;;;3.67;2.28;;;;;;;-142.91;100.00;56616.03;5027330;28;20206;-62
2022/07/19 07:38:38;;;;;;;2.58;2.25;;;;;;;-142.91;100.00;56616.03;5027755;28;20199;-62
2022/07/19 07:41:07;;;;;;;2.72;2.25;;;;;;;-142.91;100.00;56616.03;5025473;28;20612;-62
2022/07/19 07:43:34;;;;;;;2.90;2.30;;;;;;;-142.91;100.00;56616.03;5025978;28;20215;-61
2022/07/19 07:46:00;;;;;;;3.05;2.03;;;;;;;-142.91;100.00;56616.03;5027521;28;20208;-62
2022/07/19 07:48:27;;;;;;;2.03;1.92;;;;;;;-142.91;100.00;56616.03;5023353;28;20739;-61
2022/07/19 07:50:54;;;;;;;3.45;1.90;;;;;;;-142.91;100.00;56616.03;5026074;28;20215;-61
2022/07/19 07:53:21;;;;;;;7.53;2.08;;;;;;;-142.91;100.00;56616.03;5025567;28;20206;-61
2022/07/19 07:55:47;;;;;;;3.35;2.15;;;;;;;-142.91;100.00;56616.03;5028079;28;21951;-62
2022/07/19 07:58:15;;;;;;;2.30;2.00;;;;;;;-142.91;100.00;56616.03;5030381;28;20627;-62
2022/07/19 08:00:42;;;;;;;3.63;2.45;;;;;;;-142.91;100.00;56616.03;5031258;28;20259;-62
2022/07/19 08:03:09;;;;;;;6.20;2.30;;;;;;;-142.91;100.00;56616.03;5031127;28;20698;-62
2022/07/19 08:05:36;;;;;;;1.95;1.85;;;;;;;-142.91;100.00;56616.03;5029750;28;20299;-60
2022/07/19 08:08:03;;;;;;;6.68;1.90;;;;;;;-142.91;100.00;56616.03;5031024;28;20257;-60
2022/07/19 08:10:32;;;;;;;6.38;2.13;;;;;;;-142.91;100.00;56616.03;5028989;28;20202;-60
2022/07/19 08:12:59;;;;;;;4.10;2.17;;;;;;;-142.91;100.00;56616.03;5030282;28;20227;-61
2022/07/19 08:15:27;;;;;;;2.25;2.05;;;;;;;-142.91;100.00;56616.03;5029306;28;20206;-61
2022/07/19 08:17:53;;;;;;;2.55;2.38;;;;;;;-142.91;100.00;56616.03;5030158;28;20279;-62
2022/07/19 08:20:20;;;;;;;2.55;2.25;;;;;;;-142.91;100.00;56616.03;5029840;28;21570;-61
2022/07/19 08:22:47;;;;;;;3.95;1.92;;;;;;;-142.91;100.00;56616.03;5030597;28;20206;-60
2022/07/19 08:25:16;;;;;;;1.85;1.65;;;;;;;-142.91;100.00;56616.03;5029189;28;20826;-60
2022/07/19 08:27:43;;;;;;;6.13;1.85;;;;;;;-142.91;100.00;56616.03;5028705;28;20213;-61
2022/07/19 08:30:11;;;;;;;2.17;2.08;;;;;;;-142.91;100.00;56616.03;5031292;28;20268;-61
2022/07/19 08:32:40;;;;;;;2.95;1.85;;;;;;;-142.91;100.00;56616.03;5031269;28;20198;-61
2022/07/19 08:35:08;;;;;;;3.28;1.75;;;;;;;-142.91;100.00;56616.03;5027895;28;20226;-61
2022/07/19 08:37:35;;;;;;;3.70;1.60;;;;;;;-142.91;100.00;56616.03;5030139;28;20198;-64
2022/07/19 08:40:03;;;;;;;5.47;2.20;;;;;;;-142.91;100.00;56616.03;5028149;28;20206;-62
2022/07/19 08:42:31;;;;;;;3.20;1.88;;;;;;;-142.91;100.00;56616.03;5028285;28;20211;-61
2022/07/19 08:45:01;;;;;;;2.33;2.13;;;;;;;-142.91;100.00;56616.03;5028078;28;20227;-61
2022/07/19 08:47:29;;;;;;;3.08;2.05;;;;;;;-142.91;100.00;56616.03;5030596;28;20229;-63
2022/07/19 08:49:59;;;;;;;2.33;1.70;;;;;;;-142.91;100.00;56616.03;5028472;28;20209;-61
2022/07/19 08:52:26;;;;;;;5.05;1.77;;;;;;;-142.91;100.00;56616.03;5029179;28;20207;-61
2022/07/19 08:54:54;;;;;;;2.05;1.85;;;;;;;-142.91;100.00;56616.03;5028704;28;20685;-62
2022/07/19 09:00:06;;;;;;;5.95;2.10;;;;;;;-142.91;100.00;56616.03;5026798;28;20208;-62
2022/07/19 09:02:33;;;;;;;2.97;2.13;;;;;;;-142.91;100.00;56616.03;5025850;28;20202;-62
2022/07/19 09:05:05;;;;;;;2.75;2.00;;;;;;;-142.91;100.00;56616.03;5027680;28;20238;-62
2022/07/19 09:07:32;;;;;;;2.97;1.75;;;;;;;-142.91;100.00;56616.03;5029918;28;20331;-62
2022/07/19 09:10:17;;;;;;;2.80;1.90;;;;;;;-142.91;100.00;56616.03;5027441;28;20213;-63
2022/07/19 09:13:01;;;;;;;2.97;2.00;;;;;;;-142.91;100.00;56616.03;5027461;28;20209;-63
2022/07/19 09:15:44;;;;;;;2.97;2.42;;;;;;;-142.91;100.00;56616.03;5027200;28;21212;-62
2022/07/19 09:18:15;;;;;;;2.65;2.08;;;;;;;-142.91;100.00;56616.03;5027099;28;20190;-62
2022/07/19 09:20:44;;;;;;;2.63;2.42;;;;;;;-142.91;100.00;56616.03;5026450;28;20209;-67
2022/07/19 09:23:11;;;;;;;2.53;2.33;;;;;;;-142.91;100.00;56616.03;5026531;28;20202;-66
2022/07/19 09:25:41;;;;;;;1.98;1.88;;;;;;;-142.91;100.00;56616.03;5028843;28;20226;-66
2022/07/19 09:28:09;;;;;;;2.63;2.42;;;;;;;-142.91;100.00;56616.03;5029743;28;20244;-66
2022/07/19 09:30:39;;;;;;;2.03;1.83;;;;;;;-142.91;100.00;56616.03;5028692;28;20917;-67
2022/07/19 09:33:12;;;;;;;3.08;2.35;;;;;;;-142.91;100.00;56616.03;5028521;28;20345;-67
2022/07/19 09:35:42;;;;;;;2.95;2.15;;;;;;;-142.91;100.00;56616.03;5027325;28;20937;-67
2022/07/19 09:38:21;;;;;;;1.75;1.65;;;;;;;-142.91;100.00;56616.03;5027915;28;20248;-67
2022/07/19 09:40:49;;;;;;;1.90;1.80;;;;;;;-142.91;100.00;56616.03;5030087;28;21133;-67
2022/07/19 09:43:16;;;;;;;2.30;2.20;;;;;;;-142.91;100.00;56616.03;5028233;28;20267;-66
2022/07/19 09:45:44;;;;;;;2.47;2.03;;;;;;;-142.91;100.00;56616.03;5027738;28;20238;-67
2022/07/19 09:48:11;;;;;;;3.53;2.20;;;;;;;-142.91;100.00;56616.03;5026735;28;20207;-68
2022/07/19 09:50:38;;;;;;;4.03;2.08;;;;;;;-142.91;100.00;56616.03;5028907;28;20925;-67
2022/07/19 09:53:06;;;;;;;3.30;1.80;;;;;;;-142.91;100.00;56616.03;5030277;28;21806;-67
2022/07/19 09:55:35;;;;;;;3.05;2.03;;;;;;;-142.91;100.00;56616.03;5028936;28;20306;-67
2022/07/19 09:58:03;;;;;;;2.75;1.95;;;;;;;-142.91;100.00;56616.03;5029577;28;20198;-66
2022/07/19 10:00:30;;;;;;;3.92;2.25;;;;;;;-142.91;100.00;56616.03;5029125;28;20206;-66
2022/07/19 10:02:59;;;;;;;2.55;2.00;;;;;;;-142.91;100.00;56616.03;5029801;28;20202;-67
2022/07/19 10:05:28;;;;;;;2.10;2.00;;;;;;;-142.91;100.00;56616.03;5027774;28;20225;-67
2022/07/19 10:07:56;;;;;;;2.78;2.45;;;;;;;-142.91;100.00;56616.03;5029259;28;20206;-67
2022/07/19 10:10:24;;;;;;;3.10;1.90;;;;;;;-142.91;100.00;56616.03;5028713;28;20202;-66
2022/07/19 10:12:53;;;;;;;5.00;1.95;;;;;;;-142.91;100.00;56616.03;5029284;28;20570;-66
2022/07/19 10:15:20;;;;;;;6.20;5.60;;;;;;;-142.91;100.00;56616.03;5027259;28;20209;-67
2022/07/19 10:17:58;;;;;;;2.97;2.17;;;;;;;-142.91;100.00;56616.03;5027747;28;20502;-67
2022/07/19 10:20:27;;;;;;;2.97;2.22;;;;;;;-142.91;100.00;56616.03;5028520;28;20202;-67
2022/07/19 10:22:57;;;;;;;2.40;1.98;;;;;;;-142.91;100.00;56616.03;5029023;28;20221;-67
2022/07/19 10:25:24;;;;;;;3.45;2.88;;;;;;;-142.91;100.00;56616.03;5028541;28;20723;-66
2022/07/19 10:27:54;;;;;;;22.30;15.70;;;;;;;-142.91;100.00;56616.03;5028512;28;20206;-65
2022/07/19 10:30:25;;;;;;;4.03;2.45;;;;;;;-142.91;100.00;56616.03;5028203;28;20198;-67
2022/07/19 10:32:54;;;;;;;1.70;1.60;;;;;;;-142.91;100.00;56616.03;5029188;28;20202;-67
2022/07/19 10:35:23;;;;;;;6.40;2.42;;;;;;;-142.91;100.00;56616.03;5028353;28;20780;-66
2022/07/19 10:37:51;;;;;;;3.55;2.50;;;;;;;-142.91;100.00;56616.03;5028041;28;20881;-67
2022/07/19 10:40:37;;;;;;;2.60;2.40;;;;;;;-142.91;100.00;56616.03;5029117;28;20213;-67
2022/07/19 10:43:10;;;;;;;2.55;2.35;;;;;;;-142.91;100.00;56616.03;5027152;28;20649;-66
2022/07/19 10:45:38;;;;;;;3.25;2.30;;;;;;;-142.91;100.00;56616.03;5027773;28;20230;-67
2022/07/19 10:48:14;;;;;;;3.72;2.25;;;;;;;-142.91;100.00;56616.03;5030438;28;20206;-65
2022/07/19 10:50:58;;;;;;;4.30;3.22;;;;;;;-142.91;100.00;56616.03;5031041;28;20213;-67
2022/07/19 10:53:59;;;;;;;2.08;1.90;;;;;;;-142.91;100.00;56616.03;5026804;28;20216;-66
2022/07/19 10:56:41;;;;;;;7.18;2.03;;;;;;;-142.91;100.00;56616.03;5028711;28;20202;-66
2022/07/19 10:59:10;;;;;;;2.60;2.40;;;;;;;-142.91;100.00;56616.03;5027669;28;20209;-66
2022/07/19 11:01:39;;;;;;;2.90;2.70;;;;;;;-142.91;100.00;56616.03;5028014;28;20222;-67
2022/07/19 11:04:42;;;;;;;2.55;2.22;;;;;;;-142.91;100.00;56616.03;5026353;28;20216;-66
2022/07/19 11:07:18;;;;;;;5.00;2.45;;;;;;;-142.91;100.00;56616.03;4966294;28;20243;-66
2022/07/19 11:09:50;;;;;;;2.55;2.17;;;;;;;-142.91;100.00;56616.03;4964058;28;20687;-66
2022/07/19 11:12:32;;;;;;;10.75;6.97;;;;;;;-142.91;100.00;56616.03;4999607;28;20202;-66
2022/07/19 11:15:02;;;;;;;2.65;2.25;;;;;;;-142.91;100.00;56616.03;5026095;28;20213;-66
2022/07/19 11:17:28;;;;;;;4.30;2.47;;;;;;;-142.91;100.00;56616.03;5028137;28;20210;-66